createdAt,value
2019-03-06T00:01:27.402Z,6.37
2019-03-06T00:03:57.875Z,5.67
2019-03-06T00:06:28.367Z,5.40
2019-03-06T00:08:58.829Z,4.97
2019-03-06T00:11:29.235Z,4.77
2019-03-06T00:13:59.705Z,5.20
2019-03-06T00:16:30.120Z,5.20
2019-03-06T00:19:00.578Z,4.97
2019-03-06T00:21:31.085Z,5.20
2019-03-06T00:24:01.609Z,6.07
2019-03-06T00:26:32.119Z,5.77
2019-03-06T00:29:03.654Z,5.20
2019-03-06T00:31:34.081Z,5.40
2019-03-06T00:34:04.619Z,6.30
2019-03-06T00:36:35.129Z,7.00
2019-03-06T00:39:07.102Z,5.80
2019-03-06T00:41:39.996Z,7.07
2019-03-06T00:44:10.466Z,6.20
2019-03-06T00:46:40.895Z,6.30
2019-03-06T00:49:17.151Z,6.50
2019-03-06T00:51:49.017Z,6.37
2019-03-06T00:54:19.481Z,6.67
2019-03-06T00:56:49.893Z,7.00
2019-03-06T00:59:20.342Z,6.90
2019-03-06T01:01:52.942Z,7.50
2019-03-06T01:04:31.958Z,7.30
2019-03-06T01:07:03.595Z,6.57
2019-03-06T01:09:34.348Z,6.57
2019-03-06T01:12:04.846Z,7.00
2019-03-06T01:14:35.327Z,6.97
2019-03-06T01:17:05.764Z,6.80
2019-03-06T01:19:36.229Z,6.20
2019-03-06T01:22:06.727Z,6.57
2019-03-06T01:24:37.417Z,7.07
2019-03-06T01:27:07.900Z,6.33
2019-03-06T01:29:38.358Z,6.23
2019-03-06T01:32:08.800Z,6.50
2019-03-06T01:34:40.887Z,6.90
2019-03-06T01:37:12.967Z,5.90
2019-03-06T01:39:47.849Z,7.03
2019-03-06T01:42:20.008Z,6.57
2019-03-06T01:44:50.473Z,6.00
2019-03-06T01:47:20.939Z,6.10
2019-03-06T01:49:51.399Z,6.73
2019-03-06T01:52:21.843Z,6.50
2019-03-06T01:54:52.316Z,7.47
2019-03-06T01:57:22.739Z,6.40
2019-03-06T01:59:53.287Z,7.00
2019-03-06T02:02:23.796Z,7.23
2019-03-06T02:04:54.260Z,6.93
2019-03-06T02:07:25.070Z,7.47
2019-03-06T02:09:55.532Z,7.33
2019-03-06T02:12:25.966Z,7.33
2019-03-06T02:14:56.433Z,7.40
2019-03-06T02:17:26.872Z,7.40
2019-03-06T02:19:57.779Z,7.67
2019-03-06T02:22:28.212Z,7.37
2019-03-06T02:24:58.756Z,7.53
2019-03-06T02:27:29.251Z,7.77
2019-03-06T02:29:59.991Z,8.47
2019-03-06T02:32:30.434Z,7.43
2019-03-06T02:35:00.889Z,7.53
2019-03-06T02:37:31.395Z,7.93
2019-03-06T02:40:01.918Z,8.30
2019-03-06T02:42:32.596Z,8.67
2019-03-06T02:45:03.059Z,8.40
2019-03-06T02:47:34.558Z,8.27
2019-03-06T02:50:07.767Z,8.00
2019-03-06T02:52:38.280Z,8.17
2019-03-06T02:55:11.365Z,8.33
2019-03-06T02:57:46.472Z,8.00
2019-03-06T03:00:36.956Z,7.93
2019-03-06T03:03:25.509Z,8.47
2019-03-06T03:06:00.483Z,8.63
2019-03-06T03:08:31.214Z,8.73
2019-03-06T03:11:01.678Z,8.00
2019-03-06T03:13:32.180Z,8.73
2019-03-06T03:16:02.713Z,9.07
2019-03-06T03:18:33.293Z,9.20
2019-03-06T03:21:04.733Z,9.60
2019-03-06T03:23:35.174Z,8.33
2019-03-06T03:26:05.662Z,8.80
2019-03-06T03:28:36.100Z,10.27
2019-03-06T03:31:06.574Z,9.40
2019-03-06T03:33:37.013Z,9.93
2019-03-06T03:36:07.471Z,9.60
2019-03-06T03:38:37.920Z,10.07
2019-03-06T03:41:08.469Z,9.20
2019-03-06T03:43:39.565Z,9.97
2019-03-06T03:46:10.272Z,9.40
2019-03-06T03:48:40.721Z,10.13
2019-03-06T03:51:11.196Z,9.30
2019-03-06T03:53:41.646Z,9.50
2019-03-06T03:56:12.108Z,9.50
2019-03-06T03:58:42.538Z,9.90
2019-03-06T04:01:13.014Z,9.27
2019-03-06T04:03:43.449Z,9.43
2019-03-06T04:06:13.982Z,9.70
2019-03-06T04:08:44.488Z,9.23
2019-03-06T04:11:14.950Z,9.17
2019-03-06T04:13:45.403Z,9.30
2019-03-06T04:16:15.852Z,9.43
2019-03-06T04:18:46.675Z,9.53
2019-03-06T04:21:17.125Z,9.50
2019-03-06T04:23:47.557Z,10.40
2019-03-06T04:26:18.026Z,10.07
2019-03-06T04:28:48.471Z,10.07
2019-03-06T04:31:19.100Z,9.77
2019-03-06T04:33:49.547Z,10.03
2019-03-06T04:36:20.020Z,10.33
2019-03-06T04:38:50.449Z,9.87
2019-03-06T04:41:21.992Z,9.50
2019-03-06T04:43:53.860Z,9.53
2019-03-06T04:46:24.324Z,9.43
2019-03-06T04:48:54.745Z,10.40
2019-03-06T04:51:25.212Z,9.63
2019-03-06T04:53:55.712Z,9.20
2019-03-06T04:56:26.168Z,9.63
2019-03-06T04:58:56.608Z,9.47
2019-03-06T05:01:37.577Z,9.43
2019-03-06T05:04:08.083Z,10.20
2019-03-06T05:06:38.550Z,9.40
2019-03-06T05:09:08.977Z,9.50
2019-03-06T05:11:39.443Z,10.40
2019-03-06T05:14:10.050Z,10.33
2019-03-06T05:16:42.161Z,10.80
2019-03-06T05:19:12.714Z,11.17
2019-03-06T05:21:43.520Z,11.07
2019-03-06T05:24:13.945Z,12.87
2019-03-06T05:26:44.430Z,15.87
2019-03-06T05:29:14.938Z,27.77
2019-03-06T05:32:21.794Z,58.03
2019-03-06T05:34:52.246Z,47.70
2019-03-06T05:37:40.812Z,25.73
2019-03-06T05:40:11.514Z,18.10
2019-03-06T05:42:41.998Z,13.00
2019-03-06T05:45:12.749Z,12.10
2019-03-06T05:47:43.225Z,10.27
2019-03-06T05:50:14.645Z,12.07
2019-03-06T05:52:45.241Z,10.90
2019-03-06T05:55:15.676Z,10.50
2019-03-06T05:57:46.146Z,10.50
2019-03-06T06:00:19.160Z,10.23
2019-03-06T06:02:49.648Z,11.43
2019-03-06T06:05:23.107Z,10.63
2019-03-06T06:07:53.880Z,12.17
2019-03-06T06:10:24.302Z,17.53
2019-03-06T06:12:54.853Z,23.63
2019-03-06T06:15:25.295Z,21.87
2019-03-06T06:17:56.297Z,20.47
2019-03-06T06:20:26.896Z,16.10
2019-03-06T06:23:01.747Z,13.43
2019-03-06T06:25:33.804Z,13.20
2019-03-06T06:28:04.294Z,13.70
2019-03-06T06:30:34.920Z,13.73
2019-03-06T06:33:05.466Z,20.53
2019-03-06T06:35:35.959Z,16.73
2019-03-06T06:38:07.489Z,12.10
2019-03-06T06:40:37.914Z,12.00
2019-03-06T06:43:09.395Z,12.53
2019-03-06T06:45:39.900Z,11.53
2019-03-06T06:48:21.246Z,11.73
2019-03-06T06:51:02.589Z,11.53
2019-03-06T06:53:45.303Z,11.53
2019-03-06T06:56:31.050Z,11.77
2019-03-06T06:59:04.786Z,11.50
2019-03-06T07:02:08.613Z,11.57
2019-03-06T07:05:02.927Z,12.40
2019-03-06T07:07:38.257Z,11.63
2019-03-06T07:10:22.450Z,11.60
2019-03-06T07:13:12.689Z,12.37
2019-03-06T07:16:01.193Z,11.27
2019-03-06T07:18:33.354Z,12.73
2019-03-06T07:21:11.663Z,11.90
2019-03-06T07:23:49.633Z,11.13
2019-03-06T07:26:38.241Z,12.10
2019-03-06T07:29:16.552Z,12.57
2019-03-06T07:31:48.684Z,12.37
2019-03-06T07:34:32.921Z,12.30
2019-03-06T07:37:05.201Z,12.27
2019-03-06T07:39:37.414Z,12.40
2019-03-06T07:42:21.418Z,12.33
2019-03-06T07:45:21.191Z,14.00
2019-03-06T07:47:53.356Z,12.37
2019-03-06T07:50:25.458Z,15.93
2019-03-06T07:53:19.929Z,16.17
2019-03-06T07:55:52.105Z,16.03
2019-03-06T07:58:50.568Z,15.30
2019-03-06T08:01:22.455Z,14.60
2019-03-06T08:04:02.683Z,14.30
2019-03-06T08:06:33.236Z,12.80
2019-03-06T08:09:04.123Z,14.35
2019-03-06T08:11:53.886Z,13.15
2019-03-06T08:14:31.628Z,14.53
2019-03-06T08:17:06.729Z,14.65
2019-03-06T08:19:47.364Z,14.90
2019-03-06T08:22:19.655Z,14.00
2019-03-06T08:24:54.668Z,14.07
2019-03-06T08:27:26.145Z,14.75
2019-03-06T08:29:56.583Z,14.30
2019-03-06T08:32:28.690Z,15.68
2019-03-06T08:35:00.245Z,14.50
2019-03-06T08:37:30.832Z,14.35
2019-03-06T08:40:01.271Z,15.55
2019-03-06T08:42:32.996Z,14.58
2019-03-06T08:45:04.169Z,13.05
2019-03-06T08:47:40.277Z,13.98
2019-03-06T08:50:18.203Z,13.78
2019-03-06T08:52:50.397Z,13.32
2019-03-06T08:55:40.660Z,13.68
2019-03-06T08:58:18.619Z,13.72
2019-03-06T09:00:50.705Z,14.05
2019-03-06T09:03:26.865Z,13.53
2019-03-06T09:06:08.040Z,13.35
2019-03-06T09:08:56.356Z,13.20
2019-03-06T09:11:37.208Z,14.07
2019-03-06T09:14:26.019Z,13.80
2019-03-06T09:17:03.926Z,14.87
2019-03-06T09:19:49.566Z,12.78
2019-03-06T09:22:21.725Z,14.13
2019-03-06T09:24:56.853Z,14.50
2019-03-06T09:27:34.767Z,13.55
2019-03-06T09:30:16.028Z,14.65
2019-03-06T09:32:48.818Z,14.45
2019-03-06T09:35:33.094Z,14.55
2019-03-06T09:38:22.991Z,15.13
2019-03-06T09:41:10.820Z,15.25
2019-03-06T09:43:48.638Z,14.73
2019-03-06T09:46:23.689Z,15.38
2019-03-06T09:48:56.060Z,15.58
2019-03-06T09:51:31.059Z,16.97
2019-03-06T09:54:03.120Z,15.72
2019-03-06T09:56:35.307Z,16.77
2019-03-06T09:59:07.569Z,16.20
2019-03-06T10:01:55.576Z,15.93
2019-03-06T10:04:34.328Z,16.87
2019-03-06T10:07:18.478Z,17.42
2019-03-06T10:10:08.764Z,17.07
2019-03-06T10:12:51.236Z,19.50
2019-03-06T10:15:32.046Z,19.65
2019-03-06T10:18:04.162Z,19.50
2019-03-06T10:20:34.614Z,19.30
2019-03-06T10:23:05.152Z,18.82
2019-03-06T10:25:36.583Z,17.82
2019-03-06T10:28:07.118Z,17.07
2019-03-06T10:30:37.637Z,15.70
2019-03-06T10:33:08.176Z,16.02
2019-03-06T10:35:38.676Z,16.77
2019-03-06T10:38:16.442Z,17.55
2019-03-06T10:40:41.569Z,16.25
2019-03-06T10:43:12.410Z,17.00
2019-03-06T10:45:43.928Z,16.02
2019-03-06T10:48:14.469Z,16.77
2019-03-06T10:50:44.978Z,16.62
2019-03-06T10:53:15.525Z,14.60
2019-03-06T10:55:46.036Z,16.05
2019-03-06T10:58:16.575Z,16.25
2019-03-06T11:00:51.674Z,14.10
2019-03-06T11:03:23.936Z,14.28
2019-03-06T11:05:54.427Z,15.45
2019-03-06T11:08:25.106Z,13.22
2019-03-06T11:10:55.735Z,14.47
2019-03-06T11:13:26.359Z,14.25
2019-03-06T11:15:56.930Z,14.43
2019-03-06T11:18:27.481Z,13.83
2019-03-06T11:20:58.011Z,12.85
2019-03-06T11:23:29.122Z,12.88
2019-03-06T11:25:59.580Z,12.95
2019-03-06T11:28:30.071Z,12.50
2019-03-06T11:31:00.597Z,13.03
2019-03-06T11:33:31.312Z,12.68
2019-03-06T11:36:02.039Z,11.97
2019-03-06T11:38:32.577Z,12.63
2019-03-06T11:41:02.999Z,12.53
2019-03-06T11:43:33.548Z,12.45
2019-03-06T11:46:04.149Z,13.32
2019-03-06T11:48:34.759Z,12.70
2019-03-06T11:51:05.498Z,12.65
2019-03-06T11:53:36.093Z,11.60
2019-03-06T11:56:06.603Z,12.45
2019-03-06T11:58:38.143Z,12.75
2019-03-06T12:01:11.946Z,13.40
2019-03-06T12:03:43.228Z,12.95
2019-03-06T12:06:13.826Z,12.90
2019-03-06T12:08:45.818Z,13.95
2019-03-06T12:11:16.554Z,13.60
2019-03-06T12:13:47.087Z,13.65
2019-03-06T12:16:18.846Z,12.90
2019-03-06T12:18:49.407Z,12.37
2019-03-06T12:21:20.072Z,13.00
2019-03-06T12:23:51.290Z,12.95
2019-03-06T12:26:22.149Z,11.40
2019-03-06T12:28:52.698Z,10.48
2019-03-06T12:31:23.134Z,11.60
2019-03-06T12:33:53.696Z,11.95
2019-03-06T12:36:24.126Z,11.83
2019-03-06T12:38:54.616Z,11.18
2019-03-06T12:41:25.069Z,11.28
2019-03-06T12:43:55.549Z,10.98
2019-03-06T12:46:25.997Z,9.38
2019-03-06T12:48:58.418Z,9.60
2019-03-06T12:51:29.239Z,10.53
2019-03-06T12:53:59.714Z,8.80
2019-03-06T12:56:31.129Z,9.38
2019-03-06T12:59:01.634Z,8.53
2019-03-06T13:01:33.263Z,9.95
2019-03-06T13:04:03.976Z,9.53
2019-03-06T13:06:38.271Z,8.60
2019-03-06T13:09:14.578Z,9.25
2019-03-06T13:11:45.184Z,9.63
2019-03-06T13:14:16.673Z,8.50
2019-03-06T13:16:50.495Z,8.40
2019-03-06T13:19:22.528Z,7.78
2019-03-06T13:21:53.096Z,8.90
2019-03-06T13:24:23.631Z,9.20
2019-03-06T13:26:54.293Z,9.35
2019-03-06T13:29:25.958Z,9.28
2019-03-06T13:31:56.567Z,8.75
2019-03-06T13:34:28.736Z,8.90
2019-03-06T13:36:59.272Z,8.70
2019-03-06T13:39:29.981Z,8.75
2019-03-06T13:42:00.578Z,9.18
2019-03-06T13:44:31.114Z,9.70
2019-03-06T13:47:01.628Z,9.28
2019-03-06T13:49:33.077Z,10.85
2019-03-06T13:52:03.601Z,11.15
2019-03-06T13:54:34.322Z,11.03
2019-03-06T13:57:04.840Z,10.78
2019-03-06T13:59:35.384Z,10.55
2019-03-06T14:02:05.914Z,9.98
2019-03-06T14:04:36.665Z,9.15
2019-03-06T14:07:07.096Z,10.35
2019-03-06T14:09:37.586Z,10.43
2019-03-06T14:12:08.311Z,8.75
2019-03-06T14:14:38.861Z,8.60
2019-03-06T14:17:14.901Z,9.83
2019-03-06T14:19:45.725Z,8.75
2019-03-06T14:22:16.247Z,9.13
2019-03-06T14:24:46.978Z,12.37
2019-03-06T14:27:17.413Z,11.00
2019-03-06T14:29:48.022Z,9.58
2019-03-06T14:32:18.549Z,8.78
2019-03-06T14:34:49.026Z,9.28
2019-03-06T14:37:19.474Z,9.28
2019-03-06T14:39:50.009Z,8.40
2019-03-06T14:42:20.442Z,9.45
2019-03-06T14:44:50.918Z,10.15
2019-03-06T14:47:23.025Z,9.75
2019-03-06T14:49:53.487Z,11.28
2019-03-06T14:52:24.002Z,14.15
2019-03-06T14:54:54.562Z,12.50
2019-03-06T14:57:26.079Z,13.22
2019-03-06T14:59:56.806Z,15.90
2019-03-06T15:02:27.302Z,12.78
2019-03-06T15:04:57.780Z,12.95
2019-03-06T15:07:28.368Z,12.30
2019-03-06T15:09:59.004Z,11.45
2019-03-06T15:12:31.481Z,11.70
2019-03-06T15:15:01.812Z,10.10
2019-03-06T15:17:32.331Z,12.33
2019-03-06T15:20:02.986Z,10.88
2019-03-06T15:22:38.669Z,11.53
2019-03-06T15:25:11.509Z,10.38
2019-03-06T15:27:42.035Z,10.50
2019-03-06T15:30:14.683Z,11.48
2019-03-06T15:32:45.219Z,11.85
2019-03-06T15:35:15.926Z,11.50
2019-03-06T15:37:46.462Z,12.50
2019-03-06T15:40:22.925Z,13.62
2019-03-06T15:42:53.451Z,15.53
2019-03-06T15:45:25.583Z,12.58
2019-03-06T15:47:56.296Z,11.50
2019-03-06T15:50:27.341Z,12.88
2019-03-06T15:52:58.200Z,12.40
2019-03-06T15:55:29.184Z,12.43
2019-03-06T15:57:59.703Z,11.85
2019-03-06T16:00:46.291Z,10.85
2019-03-06T16:03:14.645Z,14.53
2019-03-06T16:05:45.434Z,13.05
2019-03-06T16:08:15.935Z,14.00
2019-03-06T16:10:46.793Z,12.88
2019-03-06T16:13:17.222Z,13.62
2019-03-06T16:15:47.771Z,15.65
2019-03-06T16:18:20.186Z,16.20
2019-03-06T16:20:51.800Z,13.98
2019-03-06T16:23:22.610Z,15.28
2019-03-06T16:25:53.077Z,13.95
2019-03-06T16:28:23.529Z,14.28
2019-03-06T16:30:53.991Z,16.50
2019-03-06T16:33:24.494Z,15.10
2019-03-06T16:35:56.355Z,14.83
2019-03-06T16:38:26.912Z,16.00
2019-03-06T16:40:57.416Z,15.40
2019-03-06T16:43:27.924Z,18.80
2019-03-06T16:45:59.749Z,20.85
2019-03-06T16:48:30.452Z,19.20
2019-03-06T16:51:00.987Z,17.32
2019-03-06T16:53:31.554Z,15.93
2019-03-06T16:56:02.227Z,18.95
2019-03-06T16:58:32.773Z,20.32
2019-03-06T17:01:03.881Z,22.60
2019-03-06T17:03:34.394Z,24.23
2019-03-06T17:06:05.006Z,30.15
2019-03-06T17:08:36.606Z,29.02
2019-03-06T17:11:07.132Z,19.12
2019-03-06T17:13:37.655Z,20.90
2019-03-06T17:16:08.200Z,21.52
2019-03-06T17:18:38.764Z,22.32
2019-03-06T17:21:09.335Z,23.52
2019-03-06T17:23:40.167Z,25.85
2019-03-06T17:26:12.233Z,31.68
2019-03-06T17:28:42.952Z,30.05
2019-03-06T17:31:13.632Z,26.80
2019-03-06T17:33:44.350Z,21.82
2019-03-06T17:36:15.115Z,24.72
2019-03-06T17:38:45.792Z,24.47
2019-03-06T17:41:16.501Z,21.50
2019-03-06T17:43:47.644Z,20.85
2019-03-06T17:46:20.081Z,22.15
2019-03-06T17:48:50.832Z,24.80
2019-03-06T17:51:22.378Z,25.72
2019-03-06T17:53:53.111Z,24.18
2019-03-06T17:56:24.401Z,23.90
2019-03-06T17:58:55.439Z,21.85
2019-03-06T18:01:27.012Z,21.77
2019-03-06T18:04:02.352Z,20.23
2019-03-06T18:06:33.345Z,19.25
2019-03-06T18:09:04.510Z,19.77
2019-03-06T18:11:36.659Z,22.70
2019-03-06T18:14:07.077Z,21.23
2019-03-06T18:16:37.715Z,20.90
2019-03-06T18:19:08.352Z,20.08
2019-03-06T18:21:38.824Z,18.57
2019-03-06T18:24:09.659Z,20.12
2019-03-06T18:26:40.307Z,19.17
2019-03-06T18:29:10.899Z,17.80
2019-03-06T18:31:41.582Z,17.67
2019-03-06T18:34:12.082Z,18.42
2019-03-06T18:36:42.621Z,21.23
2019-03-06T18:39:14.732Z,31.33
2019-03-06T18:41:45.283Z,29.25
2019-03-06T18:44:16.308Z,31.27
2019-03-06T18:46:47.106Z,32.28
2019-03-06T18:49:17.555Z,31.97
2019-03-06T18:51:49.498Z,30.27
2019-03-06T18:54:20.551Z,28.15
2019-03-06T18:56:51.435Z,24.30
2019-03-06T18:59:21.941Z,22.35
2019-03-06T19:01:52.423Z,22.82
2019-03-06T19:04:22.925Z,22.55
2019-03-06T19:06:53.455Z,19.65
2019-03-06T19:09:24.054Z,19.92
2019-03-06T19:11:54.598Z,19.07
2019-03-06T19:14:25.046Z,19.17
2019-03-06T19:16:55.601Z,18.48
2019-03-06T19:19:26.046Z,19.23
2019-03-06T19:21:56.613Z,18.12
2019-03-06T19:24:27.421Z,18.12
2019-03-06T19:26:57.918Z,18.00
2019-03-06T19:29:28.474Z,18.75
2019-03-06T19:31:58.956Z,22.42
2019-03-06T19:34:29.398Z,25.15
2019-03-06T19:37:00.066Z,21.68
2019-03-06T19:39:30.517Z,25.05
2019-03-06T19:42:01.003Z,18.57
2019-03-06T19:44:31.653Z,18.45
2019-03-06T19:47:02.141Z,16.75
2019-03-06T19:49:32.728Z,17.62
2019-03-06T19:52:03.257Z,18.12
2019-03-06T19:54:34.649Z,17.45
2019-03-06T19:57:05.208Z,18.20
2019-03-06T19:59:35.645Z,18.82
2019-03-06T20:02:06.209Z,18.00
2019-03-06T20:04:36.845Z,16.50
2019-03-06T20:07:07.305Z,16.80
2019-03-06T20:09:37.812Z,18.27
2019-03-06T20:12:08.716Z,18.35
2019-03-06T20:14:39.212Z,21.85
2019-03-06T20:17:09.689Z,20.55
2019-03-06T20:19:41.201Z,23.15
2019-03-06T20:22:11.666Z,24.18
2019-03-06T20:24:42.179Z,24.60
2019-03-06T20:27:12.770Z,23.00
2019-03-06T20:29:43.286Z,20.10
2019-03-06T20:32:13.959Z,19.82
2019-03-06T20:34:44.461Z,19.95
2019-03-06T20:37:14.984Z,20.45
2019-03-06T20:39:45.444Z,21.05
2019-03-06T20:42:15.969Z,22.55
2019-03-06T20:44:46.491Z,23.45
2019-03-06T20:47:16.966Z,23.90
2019-03-06T20:49:47.480Z,23.57
2019-03-06T20:52:18.008Z,22.10
2019-03-06T20:54:48.513Z,22.58
2019-03-06T20:57:19.056Z,24.07
2019-03-06T20:59:49.744Z,24.25
2019-03-06T21:02:20.325Z,21.45
2019-03-06T21:04:50.864Z,18.90
2019-03-06T21:07:21.336Z,19.15
2019-03-06T21:09:51.857Z,18.80
2019-03-06T21:12:22.327Z,19.10
2019-03-06T21:14:53.042Z,19.48
2019-03-06T21:17:23.565Z,17.48
2019-03-06T21:19:54.091Z,20.10
2019-03-06T21:22:24.564Z,18.15
2019-03-06T21:24:55.045Z,18.10
2019-03-06T21:27:25.559Z,21.93
2019-03-06T21:29:56.003Z,17.70
2019-03-06T21:32:26.652Z,17.82
2019-03-06T21:34:57.102Z,21.85
2019-03-06T21:37:27.586Z,23.52
2019-03-06T21:39:58.034Z,16.12
2019-03-06T21:42:28.710Z,17.15
2019-03-06T21:44:59.232Z,17.37
2019-03-06T21:47:29.872Z,16.35
2019-03-06T21:50:01.385Z,15.78
2019-03-06T21:52:33.436Z,15.15
2019-03-06T21:55:04.875Z,15.70
2019-03-06T21:57:35.400Z,16.52
2019-03-06T22:00:15.608Z,15.85
2019-03-06T22:02:46.448Z,14.90
2019-03-06T22:05:17.247Z,15.85
2019-03-06T22:07:50.194Z,15.40
2019-03-06T22:10:19.922Z,15.23
2019-03-06T22:12:50.444Z,14.85
2019-03-06T22:15:24.219Z,13.35
2019-03-06T22:17:54.919Z,14.38
2019-03-06T22:20:25.435Z,15.55
2019-03-06T22:22:55.992Z,14.87
2019-03-06T22:25:26.504Z,15.18
2019-03-06T22:27:56.955Z,15.32
2019-03-06T22:30:27.382Z,15.20
2019-03-06T22:32:59.678Z,15.10
2019-03-06T22:35:30.220Z,14.53
2019-03-06T22:38:00.868Z,14.38
2019-03-06T22:40:31.317Z,16.05
2019-03-06T22:43:02.955Z,16.37
2019-03-06T22:45:33.460Z,16.35
2019-03-06T22:48:04.122Z,16.57
2019-03-06T22:50:34.939Z,15.43
2019-03-06T22:53:05.521Z,15.45
2019-03-06T22:55:36.043Z,14.23
2019-03-06T22:58:06.501Z,14.35
2019-03-06T23:00:56.497Z,13.98
2019-03-06T23:03:28.685Z,14.98
2019-03-06T23:05:59.188Z,14.70
2019-03-06T23:08:29.673Z,14.78
2019-03-06T23:11:00.237Z,16.23
2019-03-06T23:13:30.770Z,16.73
2019-03-06T23:16:01.191Z,17.57
2019-03-06T23:18:31.719Z,16.95
2019-03-06T23:21:02.166Z,16.95
2019-03-06T23:23:32.689Z,14.70
2019-03-06T23:26:03.195Z,13.80
2019-03-06T23:28:33.704Z,13.70
2019-03-06T23:31:04.196Z,13.90
2019-03-06T23:33:34.668Z,13.95
2019-03-06T23:36:05.096Z,14.43
2019-03-06T23:38:35.733Z,13.83
2019-03-06T23:41:06.257Z,14.83
2019-03-06T23:43:36.720Z,14.18
2019-03-06T23:46:07.152Z,14.50
2019-03-06T23:48:37.616Z,13.38
2019-03-06T23:51:10.937Z,14.87
2019-03-06T23:53:43.028Z,13.55
2019-03-06T23:56:13.475Z,13.62
2019-03-06T23:58:43.999Z,13.93
